Time;durP1;ratioP1;P1;durP2;ratioP2;P2;SDS_P1;SDS_P2;PMS_P1;PMS_P2;Temp;Humidity;BMP_temperature;BMP_pressure;BME280_temperature;BME280_humidity;BME280_pressure;Samples;Min_cycle;Max_cycle;Signal;HPM_P1;HPM_P2
2021/08/01 00:00:23;;;;;;;;;7.25;5.00;;;;;-143.39;100.00;63593.47;4870575;29;46911;-82
2021/08/01 00:02:49;;;;;;;;;4.75;4.00;;;;;-143.39;100.00;63593.47;4886577;29;45376;-82
2021/08/01 00:05:14;;;;;;;;;5.00;5.00;;;;;-143.39;100.00;63593.47;4885469;29;45178;-82
2021/08/01 00:07:40;;;;;;;;;7.50;6.50;;;;;-143.39;100.00;63593.47;4885195;29;45319;-82
2021/08/01 00:10:08;;;;;;;;;5.00;5.00;;;;;-143.39;100.00;63593.47;4893583;29;45334;-82
2021/08/01 00:12:35;;;;;;;;;5.50;5.50;;;;;-143.39;100.00;63593.47;4903789;29;45443;-82
2021/08/01 00:15:00;;;;;;;;;7.00;3.75;;;;;-143.39;100.00;63593.47;4886495;29;45393;-82
2021/08/01 00:17:26;;;;;;;;;5.25;3.75;;;;;-143.39;100.00;63593.47;4886467;29;45292;-82
2021/08/01 00:19:52;;;;;;;;;5.00;5.00;;;;;-143.39;100.00;63593.47;4886448;29;48629;-82
2021/08/01 00:22:17;;;;;;;;;9.00;5.00;;;;;-143.39;100.00;63593.47;4887206;29;45502;-82
2021/08/01 00:24:43;;;;;;;;;6.25;5.00;;;;;-143.39;100.00;63593.47;4886493;29;45294;-82
2021/08/01 00:27:09;;;;;;;;;5.25;5.00;;;;;-143.39;100.00;63593.47;4886293;29;45254;-82
2021/08/01 00:29:34;;;;;;;;;6.00;5.00;;;;;-143.39;100.00;63593.47;4900751;29;47142;-82
2021/08/01 00:32:02;;;;;;;;;7.25;5.75;;;;;-143.39;100.00;63593.47;4884963;29;45983;-82
2021/08/01 00:34:27;;;;;;;;;5.00;5.00;;;;;-143.39;100.00;63593.47;4885170;29;45235;-82
2021/08/01 00:36:53;;;;;;;;;9.00;5.00;;;;;-143.39;100.00;63593.47;4869340;29;45540;-82
2021/08/01 00:39:18;;;;;;;;;5.00;4.75;;;;;-143.39;100.00;63593.47;4886110;29;47375;-82
2021/08/01 00:41:44;;;;;;;;;5.00;5.00;;;;;-143.39;100.00;63593.47;4887459;29;45235;-82
2021/08/01 00:44:09;;;;;;;;;4.75;4.75;;;;;-143.39;100.00;63593.47;4893665;29;45437;-82
2021/08/01 00:46:35;;;;;;;;;5.50;5.00;;;;;-143.39;100.00;63593.47;4905124;29;45397;-82
2021/08/01 00:49:02;;;;;;;;;6.00;4.25;;;;;-143.39;100.00;63593.47;4887573;29;46114;-82
2021/08/01 00:51:31;;;;;;;;;3.25;3.00;;;;;-143.39;100.00;63593.47;4905185;29;45501;-82
2021/08/01 00:54:00;;;;;;;;;5.00;5.00;;;;;-143.39;100.00;63593.47;4888044;29;45349;-82
2021/08/01 00:56:25;;;;;;;;;5.00;3.00;;;;;-143.39;100.00;63593.47;4886864;29;45416;-82
2021/08/01 00:58:51;;;;;;;;;11.50;6.00;;;;;-143.39;100.00;63593.47;4885780;29;45443;-82
2021/08/01 01:01:22;;;;;;;;;5.75;5.25;;;;;-143.39;100.00;63593.47;4885755;29;45437;-81
2021/08/01 01:04:12;;;;;;;;;6.75;4.75;;;;;-143.39;100.00;63593.47;4889599;29;45429;-82
2021/08/01 01:07:07;;;;;;;;;6.25;5.00;;;;;-143.39;100.00;63593.47;4881750;29;45483;-82
2021/08/01 01:09:43;;;;;;;;;6.75;5.50;;;;;-143.39;100.00;63593.47;4887301;29;47329;-82
2021/08/01 01:12:12;;;;;;;;;15.25;7.50;;;;;-143.39;100.00;63593.47;4907233;29;45266;-82
2021/08/01 01:14:49;;;;;;;;;5.50;5.50;;;;;-143.39;100.00;63593.47;4885664;29;45518;-82
2021/08/01 01:17:19;;;;;;;;;6.75;6.75;;;;;-143.39;100.00;63593.47;4884240;29;45456;-82
2021/08/01 01:20:28;;;;;;;;;9.25;5.75;;;;;-143.39;100.00;63593.47;4868487;29;47435;-81
2021/08/01 01:23:11;;;;;;;;;6.75;5.00;;;;;-143.39;100.00;63593.47;4866613;29;45373;-82
2021/08/01 01:25:51;;;;;;;;;7.00;5.00;;;;;-143.39;100.00;63593.47;4868180;29;45242;-82
2021/08/01 01:28:24;;;;;;;;;5.50;4.25;;;;;-143.39;100.00;63593.47;4866770;29;45580;-82
2021/08/01 01:31:08;;;;;;;;;4.50;4.50;;;;;-143.39;100.00;63593.47;4866348;29;46657;-82
2021/08/01 01:33:36;;;;;;;;;4.50;4.00;;;;;-143.39;100.00;63593.47;4866428;29;45474;-82
2021/08/01 01:36:04;;;;;;;;;5.00;4.00;;;;;-143.39;100.00;63593.47;4866705;29;45281;-82
2021/08/01 01:38:30;;;;;;;;;5.00;4.50;;;;;-143.39;100.00;63593.47;4865182;29;45515;-82
2021/08/01 01:40:56;;;;;;;;;6.00;4.00;;;;;-143.39;100.00;63593.47;4865071;29;47302;-82
2021/08/01 01:43:24;;;;;;;;;3.00;3.00;;;;;-143.39;100.00;63593.47;4849765;29;45186;-82
2021/08/01 01:45:52;;;;;;;;;5.00;5.00;;;;;-143.39;100.00;63593.47;4885168;29;45419;-82
2021/08/01 01:48:17;;;;;;;;;5.00;3.75;;;;;-143.39;100.00;63593.47;4856245;29;45501;-82
2021/08/01 01:50:43;;;;;;;;;4.25;4.25;;;;;-143.39;100.00;63593.47;4866904;29;45993;-82
2021/08/01 01:53:09;;;;;;;;;5.00;3.25;;;;;-143.39;100.00;63593.47;4865013;29;45311;-82
2021/08/01 01:55:36;;;;;;;;;3.00;3.00;;;;;-143.39;100.00;63593.47;4866056;29;45240;-82
2021/08/01 01:58:02;;;;;;;;;6.50;3.00;;;;;-143.39;100.00;63593.47;4849409;29;45450;-82
2021/08/01 02:00:27;;;;;;;;;3.00;3.00;;;;;-143.39;100.00;63593.47;4866356;29;45223;-82
2021/08/01 02:02:53;;;;;;;;;5.25;3.00;;;;;-143.39;100.00;63593.47;4864837;29;46398;-82
2021/08/01 02:05:18;;;;;;;;;4.00;3.00;;;;;-143.39;100.00;63593.47;4866992;29;45406;-82
2021/08/01 02:07:44;;;;;;;;;3.00;3.00;;;;;-143.39;100.00;63593.47;4864967;29;45463;-82
2021/08/01 02:10:16;;;;;;;;;3.00;3.00;;;;;-143.39;100.00;63593.47;4875773;29;45316;-83
2021/08/01 02:12:58;;;;;;;;;5.50;3.00;;;;;-143.39;100.00;63593.47;4869087;29;45454;-81
2021/08/01 02:15:40;;;;;;;;;4.75;4.75;;;;;-143.39;100.00;63593.47;4866059;29;45267;-83
2021/08/01 02:18:19;;;;;;;;;6.00;3.75;;;;;-143.39;100.00;63593.47;4865928;29;45491;-82
2021/08/01 02:20:48;;;;;;;;;3.00;3.00;;;;;-143.39;100.00;63593.47;4867739;29;48017;-82
2021/08/01 02:23:18;;;;;;;;;5.00;3.50;;;;;-143.39;100.00;63593.47;4884928;29;45574;-82
2021/08/01 02:25:46;;;;;;;;;3.75;3.00;;;;;-143.39;100.00;63593.47;4884394;29;45247;-82
2021/08/01 02:28:12;;;;;;;;;2.75;2.75;;;;;-143.39;100.00;63593.47;4884788;29;45367;-82
2021/08/01 02:30:39;;;;;;;;;2.50;2.50;;;;;-143.39;100.00;63593.47;4884477;29;45189;-82
2021/08/01 02:33:05;;;;;;;;;3.00;3.00;;;;;-143.39;100.00;63593.47;4886009;29;45330;-82
2021/08/01 02:35:31;;;;;;;;;3.00;3.00;;;;;-143.39;100.00;63593.47;4884791;29;45472;-82
2021/08/01 02:37:58;;;;;;;;;4.00;2.50;;;;;-143.39;100.00;63593.47;4884766;29;45447;-82
2021/08/01 02:40:32;;;;;;;;;2.25;2.25;;;;;-143.39;100.00;63593.47;4884376;29;46612;-81
2021/08/01 02:43:01;;;;;;;;;5.75;3.00;;;;;-143.39;100.00;63593.47;4884562;29;45238;-82
2021/08/01 02:45:27;;;;;;;;;4.00;3.75;;;;;-143.39;100.00;63593.47;4884394;29;45307;-82
2021/08/01 02:47:55;;;;;;;;;5.00;4.00;;;;;-143.39;100.00;63593.47;4884293;29;45332;-82
2021/08/01 02:50:24;;;;;;;;;6.00;4.00;;;;;-143.39;100.00;63593.47;4867392;29;47285;-82
2021/08/01 02:52:58;;;;;;;;;4.00;4.00;;;;;-143.39;100.00;63593.47;4868316;29;45494;-82
2021/08/01 02:55:27;;;;;;;;;3.00;3.00;;;;;-143.39;100.00;63593.47;4887221;29;45319;-81
2021/08/01 02:57:53;;;;;;;;;5.25;3.00;;;;;-143.39;100.00;63593.47;4876241;29;45974;-82
2021/08/01 03:00:19;;;;;;;;;5.50;2.50;;;;;-143.39;100.00;63593.47;4884061;29;45455;-83
2021/08/01 03:02:48;;;;;;;;;4.00;3.00;;;;;-143.39;100.00;63593.47;4884092;29;45497;-80
2021/08/01 03:05:14;;;;;;;;;4.75;3.75;;;;;-143.39;100.00;63593.47;4884147;29;45266;-82
2021/08/01 03:07:40;;;;;;;;;3.75;2.00;;;;;-143.39;100.00;63593.47;4882919;29;45573;-82
2021/08/01 03:10:05;;;;;;;;;3.00;3.00;;;;;-143.39;100.00;63593.47;4891245;29;46039;-82
2021/08/01 03:12:31;;;;;;;;;1.00;1.00;;;;;-143.39;100.00;63593.47;4902564;29;45299;-82
2021/08/01 03:14:56;;;;;;;;;3.00;2.50;;;;;-143.39;100.00;63593.47;4884512;29;45521;-82
2021/08/01 03:17:22;;;;;;;;;3.50;2.00;;;;;-143.39;100.00;63593.47;4885247;29;45222;-83
2021/08/01 03:19:47;;;;;;;;;3.50;2.75;;;;;-143.39;100.00;63593.47;4886507;29;45318;-82
2021/08/01 03:22:12;;;;;;;;;4.75;3.00;;;;;-143.39;100.00;63593.47;4887318;29;45152;-81
2021/08/01 03:24:38;;;;;;;;;6.75;5.00;;;;;-143.39;100.00;63593.47;4887488;29;45437;-81
2021/08/01 03:27:03;;;;;;;;;3.00;3.00;;;;;-143.39;100.00;63593.47;4887024;29;45463;-82
2021/08/01 03:29:29;;;;;;;;;3.50;2.75;;;;;-143.39;100.00;63593.47;4887152;29;46556;-81
2021/08/01 03:31:54;;;;;;;;;3.00;2.00;;;;;-143.39;100.00;63593.47;4887246;29;45340;-81
2021/08/01 03:34:20;;;;;;;;;5.25;3.25;;;;;-143.39;100.00;63593.47;4870027;29;45379;-82
2021/08/01 03:36:47;;;;;;;;;3.75;3.00;;;;;-143.39;100.00;63593.47;4887209;29;45341;-81
2021/08/01 03:39:12;;;;;;;;;2.50;2.00;;;;;-143.39;100.00;63593.47;4895510;29;45541;-81
2021/08/01 03:41:39;;;;;;;;;5.00;2.00;;;;;-143.39;100.00;63593.47;4890456;29;46094;-82
2021/08/01 03:44:04;;;;;;;;;4.25;3.25;;;;;-143.39;100.00;63593.47;4889069;29;45281;-82
2021/08/01 03:46:30;;;;;;;;;4.00;3.00;;;;;-143.39;100.00;63593.47;4905745;29;45259;-83
2021/08/01 03:48:55;;;;;;;;;5.25;4.00;;;;;-143.39;100.00;63593.47;4906775;29;45413;-82
2021/08/01 03:51:21;;;;;;;;;3.75;3.50;;;;;-143.39;100.00;63593.47;4906022;29;45199;-82
2021/08/01 03:53:46;;;;;;;;;8.50;3.75;;;;;-143.39;100.00;63593.47;4888974;29;45592;-81
2021/08/01 03:56:11;;;;;;;;;3.25;2.00;;;;;-143.39;100.00;63593.47;4905431;29;45527;-83
2021/08/01 03:58:37;;;;;;;;;3.00;3.00;;;;;-143.39;100.00;63593.47;4871092;29;47592;-81
2021/08/01 04:01:02;;;;;;;;;5.00;2.00;;;;;-143.39;100.00;63593.47;4890765;29;44645;-82
2021/08/01 04:03:27;;;;;;;;;4.00;4.00;;;;;-143.39;100.00;63593.47;4889016;29;45482;-82
2021/08/01 04:05:54;;;;;;;;;3.50;2.50;;;;;-143.39;100.00;63593.47;4887031;29;45446;-82
2021/08/01 04:08:19;;;;;;;;;5.00;3.00;;;;;-143.39;100.00;63593.47;4886524;29;46221;-82
2021/08/01 04:10:45;;;;;;;;;3.75;2.00;;;;;-143.39;100.00;63593.47;4903756;29;45932;-82
2021/08/01 04:13:10;;;;;;;;;4.00;2.25;;;;;-143.39;100.00;63593.47;4890229;29;45543;-83
2021/08/01 04:15:35;;;;;;;;;1.00;1.00;;;;;-143.39;100.00;63593.47;4886643;29;45424;-82
2021/08/01 04:18:03;;;;;;;;;1.50;1.25;;;;;-143.39;100.00;63593.47;4886150;29;45902;-82
2021/08/01 04:20:29;;;;;;;;;5.75;3.50;;;;;-143.39;100.00;63593.47;4886443;29;45230;-83
2021/08/01 04:22:55;;;;;;;;;2.00;2.00;;;;;-143.39;100.00;63593.47;4887007;29;45400;-82
2021/08/01 04:25:21;;;;;;;;;5.00;3.50;;;;;-143.39;100.00;63593.47;4888748;29;45242;-81
2021/08/01 04:27:47;;;;;;;;;7.00;3.50;;;;;-143.39;100.00;63593.47;4886520;29;45188;-81
2021/08/01 04:30:12;;;;;;;;;2.75;2.75;;;;;-143.39;100.00;63593.47;4886424;29;45185;-83
2021/08/01 04:32:38;;;;;;;;;2.00;2.00;;;;;-143.39;100.00;63593.47;4885665;29;45525;-83
2021/08/01 04:35:04;;;;;;;;;5.00;3.00;;;;;-143.39;100.00;63593.47;4886370;29;45446;-83
2021/08/01 04:37:30;;;;;;;;;5.50;4.50;;;;;-143.39;100.00;63593.47;4884765;29;48008;-83
2021/08/01 04:39:55;;;;;;;;;4.25;4.00;;;;;-143.39;100.00;63593.47;4884926;29;45447;-83
2021/08/01 04:42:20;;;;;;;;;5.25;3.50;;;;;-143.39;100.00;63593.47;4886185;29;45417;-82
2021/08/01 04:44:46;;;;;;;;;4.00;4.00;;;;;-143.39;100.00;63593.47;4869299;29;45428;-83
2021/08/01 04:47:13;;;;;;;;;4.50;3.50;;;;;-143.39;100.00;63593.47;4887463;29;45412;-83
2021/08/01 04:49:39;;;;;;;;;4.00;4.00;;;;;-143.39;100.00;63593.47;4887011;29;45265;-83
2021/08/01 04:52:04;;;;;;;;;4.75;4.00;;;;;-143.39;100.00;63593.47;4886155;29;45431;-83
2021/08/01 04:54:30;;;;;;;;;1.75;1.75;;;;;-143.39;100.00;63593.47;4869185;29;45561;-82
2021/08/01 04:56:55;;;;;;;;;3.50;2.75;;;;;-143.39;100.00;63593.47;4894037;29;46280;-83
2021/08/01 04:59:20;;;;;;;;;6.25;3.75;;;;;-143.39;100.00;63593.47;4886006;29;45221;-83
2021/08/01 05:01:46;;;;;;;;;2.75;2.75;;;;;-143.39;100.00;63593.47;4886182;29;45209;-81
2021/08/01 05:04:12;;;;;;;;;5.75;4.25;;;;;-143.39;100.00;63593.47;4885924;29;45239;-83
2021/08/01 05:06:38;;;;;;;;;4.25;3.00;;;;;-143.39;100.00;63593.47;4886500;29;46299;-83
2021/08/01 05:09:03;;;;;;;;;11.50;4.00;;;;;-143.39;100.00;63593.47;4887968;29;45351;-82
2021/08/01 05:11:28;;;;;;;;;7.00;3.00;;;;;-143.39;100.00;63593.47;4905202;29;45360;-83
2021/08/01 05:13:54;;;;;;;;;3.50;2.75;;;;;-143.39;100.00;63593.47;4877037;29;46058;-83
2021/08/01 05:16:19;;;;;;;;;4.00;3.25;;;;;-143.39;100.00;63593.47;4885554;29;45300;-82
2021/08/01 05:18:45;;;;;;;;;3.75;2.25;;;;;-143.39;100.00;63593.47;4885568;29;45365;-83
2021/08/01 05:21:11;;;;;;;;;2.75;2.75;;;;;-143.39;100.00;63593.47;4884144;29;45471;-83
2021/08/01 05:23:36;;;;;;;;;6.75;2.75;;;;;-143.39;100.00;63593.47;4868718;29;45418;-83
2021/08/01 05:26:02;;;;;;;;;3.75;3.00;;;;;-143.39;100.00;63593.47;4883896;29;47249;-83
2021/08/01 05:28:27;;;;;;;;;3.75;3.00;;;;;-143.39;100.00;63593.47;4884189;29;45334;-82
2021/08/01 05:30:52;;;;;;;;;6.00;3.75;;;;;-143.39;100.00;63593.47;4886561;29;45236;-83
2021/08/01 05:33:18;;;;;;;;;3.00;2.00;;;;;-143.39;100.00;63593.47;4887399;29;45243;-82
2021/08/01 05:35:43;;;;;;;;;6.75;5.00;;;;;-143.39;100.00;63593.47;4868396;29;47941;-83
2021/08/01 05:38:08;;;;;;;;;3.00;3.00;;;;;-143.39;100.00;63593.47;4885320;29;45343;-83
2021/08/01 05:40:34;;;;;;;;;4.25;3.50;;;;;-143.39;100.00;63593.47;4868364;29;45265;-83
2021/08/01 05:43:00;;;;;;;;;3.75;3.00;;;;;-143.39;100.00;63593.47;4884383;29;45320;-83
2021/08/01 05:45:27;;;;;;;;;2.75;2.75;;;;;-143.39;100.00;63593.47;4868100;29;46091;-83
2021/08/01 05:47:53;;;;;;;;;4.25;3.75;;;;;-143.39;100.00;63593.47;4868357;29;45479;-83
2021/08/01 05:50:18;;;;;;;;;3.00;3.00;;;;;-143.39;100.00;63593.47;4887099;29;45276;-83
2021/08/01 05:52:44;;;;;;;;;4.25;3.00;;;;;-143.39;100.00;63593.47;4888003;29;45427;-83
2021/08/01 05:55:10;;;;;;;;;4.00;2.50;;;;;-143.39;100.00;63593.47;4886146;29;46032;-83
2021/08/01 05:57:35;;;;;;;;;2.50;2.50;;;;;-143.39;100.00;63593.47;4893385;29;45382;-83
2021/08/01 06:00:00;;;;;;;;;4.50;3.00;;;;;-143.39;100.00;63593.47;4885107;29;45382;-83
2021/08/01 06:02:25;;;;;;;;;3.25;1.75;;;;;-143.39;100.00;63593.47;4883672;29;45593;-83
2021/08/01 06:04:51;;;;;;;;;4.50;3.00;;;;;-143.39;100.00;63593.47;4867877;29;48016;-83
2021/08/01 06:07:16;;;;;;;;;3.75;3.75;;;;;-143.39;100.00;63593.47;4884804;29;45425;-83
2021/08/01 06:09:43;;;;;;;;;3.50;1.75;;;;;-143.39;100.00;63593.47;4889246;29;45411;-83
2021/08/01 06:12:12;;;;;;;;;3.50;2.75;;;;;-143.39;100.00;63593.47;4903778;29;45243;-83
2021/08/01 06:14:37;;;;;;;;;4.25;3.25;;;;;-143.39;100.00;63593.47;4872549;29;47072;-82
2021/08/01 06:17:03;;;;;;;;;3.50;2.00;;;;;-143.39;100.00;63593.47;4887798;29;45529;-83
2021/08/01 06:19:28;;;;;;;;;7.50;4.50;;;;;-143.39;100.00;63593.47;4899716;29;45438;-83
2021/08/01 06:21:53;;;;;;;;;3.00;3.00;;;;;-143.39;100.00;63593.47;4884633;29;45422;-82
2021/08/01 06:24:19;;;;;;;;;2.75;2.50;;;;;-143.39;100.00;63593.47;4884521;29;45410;-82
2021/08/01 06:26:44;;;;;;;;;3.75;3.00;;;;;-143.39;100.00;63593.47;4884566;29;45318;-81
2021/08/01 06:29:10;;;;;;;;;3.75;3.50;;;;;-143.39;100.00;63593.47;4867643;29;45436;-81
2021/08/01 06:31:35;;;;;;;;;4.75;3.00;;;;;-143.39;100.00;63593.47;4884602;29;45387;-81
2021/08/01 06:34:01;;;;;;;;;5.50;2.00;;;;;-143.39;100.00;63593.47;4884420;29;45402;-82
2021/08/01 06:36:26;;;;;;;;;4.50;2.00;;;;;-143.39;100.00;63593.47;4885327;29;45389;-82
2021/08/01 06:38:52;;;;;;;;;3.00;2.00;;;;;-143.39;100.00;63593.47;4869240;29;45480;-82
2021/08/01 06:41:17;;;;;;;;;2.50;2.50;;;;;-143.39;100.00;63593.47;4899451;29;46135;-82
2021/08/01 06:43:43;;;;;;;;;3.50;2.00;;;;;-143.39;100.00;63593.47;4867344;29;46929;-82
2021/08/01 06:46:08;;;;;;;;;4.75;3.25;;;;;-143.39;100.00;63593.47;4884428;29;45323;-82
2021/08/01 06:48:34;;;;;;;;;7.75;2.50;;;;;-143.39;100.00;63593.47;4884420;29;45515;-82
2021/08/01 06:51:01;;;;;;;;;5.75;2.75;;;;;-143.39;100.00;63593.47;4867603;29;45184;-81
2021/08/01 06:53:27;;;;;;;;;4.00;2.00;;;;;-143.39;100.00;63593.47;4867183;29;48271;-82
2021/08/01 06:55:53;;;;;;;;;3.50;2.00;;;;;-143.39;100.00;63593.47;4891670;29;45375;-82
2021/08/01 06:58:19;;;;;;;;;2.75;1.50;;;;;-143.39;100.00;63593.47;4891320;29;45486;-82
2021/08/01 07:00:49;;;;;;;;;4.75;3.25;;;;;-143.39;100.00;63593.47;4889658;29;45315;-82
2021/08/01 07:03:15;;;;;;;;;4.50;2.00;;;;;-143.39;100.00;63593.47;4888249;29;46849;-81
2021/08/01 07:05:40;;;;;;;;;3.00;2.50;;;;;-143.39;100.00;63593.47;4887795;29;45263;-81
2021/08/01 07:08:06;;;;;;;;;3.50;2.75;;;;;-143.39;100.00;63593.47;4870846;29;45243;-81
2021/08/01 07:10:31;;;;;;;;;3.00;1.75;;;;;-143.39;100.00;63593.47;4898092;29;45221;-81
2021/08/01 07:13:05;;;;;;;;;3.50;1.75;;;;;-143.39;100.00;63593.47;4903097;29;45225;-81
2021/08/01 07:15:30;;;;;;;;;4.50;2.75;;;;;-143.39;100.00;63593.47;4870460;29;46064;-82
2021/08/01 07:17:57;;;;;;;;;3.50;2.25;;;;;-143.39;100.00;63593.47;4887391;29;45175;-82
2021/08/01 07:20:23;;;;;;;;;3.00;3.00;;;;;-143.39;100.00;63593.47;4888264;29;45269;-82
2021/08/01 07:22:49;;;;;;;;;3.00;2.00;;;;;-143.39;100.00;63593.47;4890676;29;45760;-82
2021/08/01 07:25:14;;;;;;;;;3.50;1.50;;;;;-143.39;100.00;63593.47;4888850;29;45392;-83
2021/08/01 07:27:40;;;;;;;;;1.75;1.75;;;;;-143.39;100.00;63593.47;4887179;29;45938;-83
2021/08/01 07:30:06;;;;;;;;;3.00;1.75;;;;;-143.39;100.00;63593.47;4887529;29;45739;-83
2021/08/01 07:32:31;;;;;;;;;7.00;3.00;;;;;-143.39;100.00;63593.47;4869964;29;47298;-83
2021/08/01 07:34:57;;;;;;;;;1.00;1.00;;;;;-143.39;100.00;63593.47;4887314;29;45353;-82
2021/08/01 07:37:22;;;;;;;;;3.00;1.00;;;;;-143.39;100.00;63593.47;4885964;29;45431;-83
2021/08/01 07:39:48;;;;;;;;;2.00;2.00;;;;;-143.39;100.00;63593.47;4870225;29;45628;-83
2021/08/01 07:42:13;;;;;;;;;2.00;2.00;;;;;-143.39;100.00;63593.47;4886856;29;46297;-83
2021/08/01 07:44:46;;;;;;;;;2.00;2.00;;;;;-143.39;100.00;63593.47;4870711;29;45265;-83
2021/08/01 07:47:20;;;;;;;;;3.75;2.00;;;;;-143.39;100.00;63593.47;4904794;29;45407;-83
2021/08/01 07:49:46;;;;;;;;;1.00;1.00;;;;;-143.39;100.00;63593.47;4893702;29;45534;-83
2021/08/01 07:52:12;;;;;;;;;2.25;1.75;;;;;-143.39;100.00;63593.47;4887213;29;45492;-83
2021/08/01 07:54:38;;;;;;;;;3.50;2.00;;;;;-143.39;100.00;63593.47;4869882;29;45914;-83
2021/08/01 07:57:20;;;;;;;;;2.75;2.75;;;;;-143.39;100.00;63593.47;4894694;29;45495;-84
2021/08/01 07:59:45;;;;;;;;;1.00;1.00;;;;;-143.39;100.00;63593.47;4886901;29;45411;-84
2021/08/01 08:02:10;;;;;;;;;1.75;0.25;;;;;-143.39;100.00;63593.47;4886850;29;46025;-84
2021/08/01 08:04:36;;;;;;;;;3.00;1.00;;;;;-143.39;100.00;63593.47;4903139;29;44763;-84
2021/08/01 08:07:01;;;;;;;;;0.00;0.00;;;;;-143.39;100.00;63593.47;4887964;29;45489;-84
2021/08/01 08:09:27;;;;;;;;;1.75;1.00;;;;;-143.39;100.00;63593.47;4889534;29;45225;-84
2021/08/01 08:11:52;;;;;;;;;2.25;1.00;;;;;-143.39;100.00;63593.47;4905360;29;46305;-84
2021/08/01 08:14:17;;;;;;;;;3.00;1.50;;;;;-143.39;100.00;63593.47;4874823;29;46044;-84
2021/08/01 08:16:43;;;;;;;;;2.00;1.00;;;;;-143.39;100.00;63593.47;4886909;29;45435;-84
2021/08/01 08:19:08;;;;;;;;;2.50;0.00;;;;;-143.39;100.00;63593.47;4886441;29;45190;-84
2021/08/01 08:21:33;;;;;;;;;1.00;1.00;;;;;-143.39;100.00;63593.47;4900920;29;48014;-84
2021/08/01 08:23:59;;;;;;;;;1.50;1.50;;;;;-143.39;100.00;63593.47;4885106;29;45265;-84
2021/08/01 08:26:24;;;;;;;;;2.50;1.25;;;;;-143.39;100.00;63593.47;4887118;29;45221;-83
2021/08/01 08:28:49;;;;;;;;;1.50;1.50;;;;;-143.39;100.00;63593.47;4888308;29;45221;-82
2021/08/01 08:31:15;;;;;;;;;2.00;1.00;;;;;-143.39;100.00;63593.47;4887295;29;45399;-83
2021/08/01 08:33:40;;;;;;;;;1.25;1.00;;;;;-143.39;100.00;63593.47;4887762;29;45250;-83
2021/08/01 08:36:05;;;;;;;;;3.25;1.25;;;;;-143.39;100.00;63593.47;4901022;29;45276;-83
2021/08/01 08:38:31;;;;;;;;;2.25;2.25;;;;;-143.39;100.00;63593.47;4886231;29;45415;-83
2021/08/01 08:40:57;;;;;;;;;0.00;0.00;;;;;-143.39;100.00;63593.47;4886281;29;45962;-85
2021/08/01 08:43:22;;;;;;;;;1.00;0.00;;;;;-143.39;100.00;63593.47;4886283;29;45253;-83
2021/08/01 08:45:48;;;;;;;;;0.00;0.00;;;;;-143.39;100.00;63593.47;4886304;29;45276;-83
2021/08/01 08:48:15;;;;;;;;;1.75;0.00;;;;;-143.39;100.00;63593.47;4887217;29;45415;-84
2021/08/01 08:50:46;;;;;;;;;1.50;1.00;;;;;-143.39;100.00;63593.47;4888667;29;45466;-84
2021/08/01 08:53:12;;;;;;;;;0.00;0.00;;;;;-143.39;100.00;63593.47;4887415;29;45345;-83
2021/08/01 08:55:38;;;;;;;;;0.00;0.00;;;;;-143.39;100.00;63593.47;4903522;29;45230;-83
2021/08/01 08:58:06;;;;;;;;;3.00;1.75;;;;;-143.39;100.00;63593.47;4891474;29;45487;-83
2021/08/01 09:00:33;;;;;;;;;1.00;1.00;;;;;-143.39;100.00;63593.47;4886247;29;45346;-83
2021/08/01 09:02:59;;;;;;;;;1.75;0.00;;;;;-143.39;100.00;63593.47;4885797;29;45354;-83
2021/08/01 09:05:25;;;;;;;;;1.50;0.00;;;;;-143.39;100.00;63593.47;4884844;29;45284;-83
2021/08/01 09:07:50;;;;;;;;;0.00;0.00;;;;;-143.39;100.00;63593.47;4885827;29;45348;-83
2021/08/01 09:10:16;;;;;;;;;0.00;0.00;;;;;-143.39;100.00;63593.47;4877272;29;47906;-84
2021/08/01 09:12:50;;;;;;;;;1.50;0.50;;;;;-143.39;100.00;63593.47;4905317;29;45303;-83
2021/08/01 09:15:21;;;;;;;;;0.25;0.00;;;;;-143.39;100.00;63593.47;4869832;29;45331;-83
2021/08/01 09:17:47;;;;;;;;;4.00;1.00;;;;;-143.39;100.00;63593.47;4868335;29;45946;-83
2021/08/01 09:20:17;;;;;;;;;0.00;0.00;;;;;-143.39;100.00;63593.47;4884446;29;48096;-84
2021/08/01 09:22:43;;;;;;;;;1.25;0.75;;;;;-143.39;100.00;63593.47;4885344;29;45233;-84
2021/08/01 09:25:17;;;;;;;;;1.25;1.25;;;;;-143.39;100.00;63593.47;4884639;29;45419;-84
2021/08/01 09:27:43;;;;;;;;;2.00;1.25;;;;;-143.39;100.00;63593.47;4885559;29;45274;-84
2021/08/01 09:30:09;;;;;;;;;0.00;0.00;;;;;-143.39;100.00;63593.47;4885932;29;45851;-84
2021/08/01 09:32:48;;;;;;;;;2.25;0.00;;;;;-143.39;100.00;63593.47;4887011;29;45426;-83
2021/08/01 09:35:20;;;;;;;;;1.50;1.00;;;;;-143.39;100.00;63593.47;4886862;29;45261;-83
2021/08/01 09:37:57;;;;;;;;;2.00;1.00;;;;;-143.39;100.00;63593.47;4892594;29;45383;-84
2021/08/01 09:40:28;;;;;;;;;1.00;1.00;;;;;-143.39;100.00;63593.47;4903906;29;45464;-83
2021/08/01 09:43:04;;;;;;;;;2.50;1.00;;;;;-143.39;100.00;63593.47;4907150;29;45419;-83
2021/08/01 09:45:29;;;;;;;;;2.00;1.00;;;;;-143.39;100.00;63593.47;4894885;29;45297;-83
2021/08/01 09:48:14;;;;;;;;;0.50;0.50;;;;;-143.39;100.00;63593.47;4886618;29;45427;-83
2021/08/01 09:50:59;;;;;;;;;0.00;0.00;;;;;-143.39;100.00;63593.47;4886196;29;46147;-84
2021/08/01 09:53:26;;;;;;;;;0.75;0.75;;;;;-143.39;100.00;63593.47;4885379;29;45413;-84
2021/08/01 09:56:10;;;;;;;;;3.00;1.00;;;;;-143.39;100.00;63593.47;4891484;29;45274;-83
2021/08/01 09:58:36;;;;;;;;;0.00;0.00;;;;;-143.39;100.00;63593.47;4888219;29;45391;-83
2021/08/01 10:01:01;;;;;;;;;3.00;1.00;;;;;-143.39;100.00;63593.47;4899591;29;46997;-83
2021/08/01 10:03:40;;;;;;;;;0.50;0.50;;;;;-143.39;100.00;63593.47;4884727;29;45278;-84
2021/08/01 10:06:10;;;;;;;;;2.00;1.00;;;;;-143.39;100.00;63593.47;4885104;29;45173;-83
2021/08/01 10:08:41;;;;;;;;;2.75;0.50;;;;;-143.39;100.00;63593.47;4868125;29;45541;-84
2021/08/01 10:11:20;;;;;;;;;0.25;0.00;;;;;-143.39;100.00;63593.47;4899985;29;46245;-84
2021/08/01 10:13:53;;;;;;;;;1.00;1.00;;;;;-143.39;100.00;63593.47;4877255;29;45459;-84
2021/08/01 10:16:19;;;;;;;;;0.50;0.00;;;;;-143.39;100.00;63593.47;4886812;29;45467;-83
2021/08/01 10:18:49;;;;;;;;;0.75;0.75;;;;;-143.39;100.00;63593.47;4888739;29;45426;-84
2021/08/01 10:21:19;;;;;;;;;0.75;0.00;;;;;-143.39;100.00;63593.47;4900908;29;47497;-84
2021/08/01 10:23:47;;;;;;;;;0.00;0.00;;;;;-143.39;100.00;63593.47;4884867;29;45507;-84
2021/08/01 10:26:15;;;;;;;;;1.25;0.00;;;;;-143.39;100.00;63593.47;4884621;29;45319;-84
2021/08/01 10:28:47;;;;;;;;;0.00;0.00;;;;;-143.39;100.00;63593.47;4884553;29;45447;-84
2021/08/01 10:31:15;;;;;;;;;0.00;0.00;;;;;-143.39;100.00;63593.47;4884385;29;46127;-84
2021/08/01 10:34:09;;;;;;;;;0.75;0.00;;;;;-143.39;100.00;63593.47;4899150;29;45361;-84
2021/08/01 10:36:37;;;;;;;;;0.00;0.00;;;;;-143.39;100.00;63593.47;4885303;29;45285;-84
2021/08/01 10:39:05;;;;;;;;;0.00;0.00;;;;;-143.39;100.00;63593.47;4884661;29;45229;-84
2021/08/01 10:41:33;;;;;;;;;0.00;0.00;;;;;-143.39;100.00;63593.47;4886764;29;45419;-84
2021/08/01 10:44:06;;;;;;;;;0.00;0.00;;;;;-143.39;100.00;63593.47;4869061;29;46089;-84
2021/08/01 10:46:34;;;;;;;;;0.00;0.00;;;;;-143.39;100.00;63593.47;4886742;29;45411;-84
2021/08/01 10:49:02;;;;;;;;;0.00;0.00;;;;;-143.39;100.00;63593.47;4884475;29;45237;-84
2021/08/01 10:51:29;;;;;;;;;0.00;0.00;;;;;-143.39;100.00;63593.47;4884619;29;45335;-84
2021/08/01 10:54:21;;;;;;;;;3.75;0.25;;;;;-143.39;100.00;63593.47;4884705;29;45457;-84
2021/08/01 10:56:47;;;;;;;;;0.50;0.25;;;;;-143.39;100.00;63593.47;4892391;29;45453;-84
2021/08/01 10:59:44;;;;;;;;;0.75;0.00;;;;;-143.39;100.00;63593.47;4867714;29;45182;-84
2021/08/01 11:02:15;;;;;;;;;1.00;0.00;;;;;-143.39;100.00;63593.47;4893932;29;45375;-83
2021/08/01 11:04:44;;;;;;;;;0.00;0.00;;;;;-143.39;100.00;63593.47;4904679;29;45249;-84
2021/08/01 11:07:09;;;;;;;;;0.00;0.00;;;;;-143.39;100.00;63593.47;4903432;29;45423;-84
2021/08/01 11:09:35;;;;;;;;;0.00;0.00;;;;;-143.39;100.00;63593.47;4903005;29;45497;-83
2021/08/01 11:12:18;;;;;;;;;0.00;0.00;;;;;-143.39;100.00;63593.47;4903091;29;45526;-84